Kenora Airport

CYQK | YQK

Kenora , Ontario , Canada

Thursday, October 24th, 2019 | 00:37

Weather

CYQK 240500Z 34009G16KT 20SM -SHSN FEW014 SCT020 OVC056 M00/M03 A3006 RMK SC2SC2SC4 CVCTV CLD ASOCTD SLP200

Charts

No Charts Available

Gates

No Gates Available

Runways

1 Available

Events

No events for this airport


New event